Airfield :
LOGIN :

Register | Disclaimer

   EN    FR    IT 

 










Legend :    VFR   Marginal VFR   IFR   Intensive IFR   Very Intensive IFR
Visi :
Ceiling :
>= 8 km
>= 3000ft
5 to 8 km
1000 to 3000 ft
1500m to 5 km
500 to 1000 ft
800 to 1500m
200 to 500 ft
< 800m
< 200 ft
Symbols :   Thunderstorms  Fog  Heavy snow  Heavy precipitations  Wind > 20 kt
SIGMETs :     Misc.  Thunderstorms  Icing  Turbulence  Mountain Waves  Volcanic Ashes







- Airport Elevation : 464 ft
- IATA code : EVX
- Download approach charts


LFOE - Evreux

CURRENT METAR :
  • 230400Z AUTO 35006KT 320V020 0400 0350 R22/0600U FG VV/// 06/06 Q1029 TEMPO 0150

EXPIRED METARs :
  • 230330Z AUTO 35003KT 0200 R22/0250N FG VV/// 06/06 Q1029 NOSIG
  • 230300Z AUTO 35006KT 320V020 0200 R22/0250N FG VV/// 06/05 Q1029 NOSIG
  • 230230Z AUTO 34006KT 300V010 0200 0150 R22/0225N FG VV/// 06/05 Q1029 NOSIG
  • 230200Z AUTO 34007KT 310V010 0200 0150 R22/0225N FG VV/// 06/05 Q1029 NOSIG
  • 230130Z AUTO 32005KT 280V360 0200 0150 R22/0250N FG VV/// 05/05 Q1029 NOSIG

TAF TAF LFOE
Valid from the 23 at 03:00 until the 24 at 03:00 UTC


230200Z 2303/2403 VRB03KT 0500 FG VV///
TEMPO 2303/2307 0150
BECMG 2307/2309 2000 BR OVC003
BECMG 2309/2312 8000 NSW BKN015
BECMG 2322/2401 BKN005
No reported NOTAMs for that airfield.



MET'MAP, your aeronautical weather chart ! - Copyright ORBIFLY December 2007 - Disclaimer

ORBIFLY MET'MAP TEAM :

Programming & Development : Alexandra Zaïnal
Concept & Development : Baudouin d'Aumeries
Co-Development & Prog : Marc-Olivier Méhu
Technical & hardware support : Manuel Goepfert

Contact : metmap@orbifly.com




SOURCES & CREDITS :

   NOAA